Time;durP1;ratioP1;P1;durP2;ratioP2;P2;SDS_P1;SDS_P2;PMS_P1;PMS_P2;Temp;Humidity;BMP_temperature;BMP_pressure;BME280_temperature;BME280_humidity;BME280_pressure;Samples;Min_cycle;Max_cycle;Signal;HPM_P1;HPM_P2
2022/03/07 13:28:29;;;;;;;1688.32;999.90;;;10.30;77.20;;;;;;6299728;22;20054;-92
2022/03/07 13:47:12;;;;;;;1626.50;999.90;;;9.90;80.00;;;;;;6339565;22;20026;-86
2022/03/07 14:06:08;;;;;;;1740.65;999.90;;;8.90;78.50;;;;;;6333213;22;20022;-92
2022/03/07 14:40:10;;;;;;;1888.55;999.90;;;8.40;70.40;;;;;;6332031;22;21244;-94
2022/03/07 15:34:00;;;;;;;1719.25;999.90;;;7.90;80.00;;;;;;6347683;22;20017;-92
2022/03/07 15:52:41;;;;;;;1985.45;999.90;;;7.70;86.90;;;;;;6322680;22;20056;-92
2022/03/07 15:55:08;;;;;;;1755.30;999.90;;;7.80;88.40;;;;;;6309890;22;20098;-90
2022/03/07 16:09:33;;;;;;;1961.50;999.90;;;7.60;75.80;;;;;;6340094;22;20014;-88
2022/03/07 16:27:00;;;;;;;1852.07;999.90;;;7.40;90.10;;;;;;6334449;22;20273;-92
2022/03/07 17:10:29;;;;;;;1876.82;999.90;;;6.00;99.80;;;;;;6334050;22;20041;-84
2022/03/07 17:12:55;;;;;;;1878.88;999.90;;;5.90;99.90;;;;;;6313770;22;20019;-84
2022/03/07 17:19:09;;;;;;;1789.57;999.90;;;5.20;99.90;;;;;;6237462;22;20117;-85
2022/03/07 17:21:35;;;;;;;1864.40;999.90;;;5.60;99.90;;;;;;6302677;22;20011;-84
2022/03/07 17:24:01;;;;;;;1881.55;999.90;;;6.60;99.90;;;;;;6302841;22;20083;-84
2022/03/07 18:09:09;;;;;;;476.15;167.55;;;4.40;99.90;;;;;;6319388;22;20061;-84
2022/03/07 18:22:06;;;;;;;450.33;155.15;;;4.00;99.90;;;;;;6332010;22;20025;-85
2022/03/07 18:43:39;;;;;;;240.68;120.97;;;3.60;99.90;;;;;;6328482;22;20026;-86
2022/03/07 18:46:10;;;;;;;215.85;113.00;;;4.30;99.90;;;;;;6278778;22;20462;-85
2022/03/07 18:48:39;;;;;;;214.75;113.45;;;3.60;99.90;;;;;;6303655;22;20318;-86
2022/03/07 18:51:06;;;;;;;208.73;109.65;;;4.30;99.90;;;;;;6303663;22;20018;-86
2022/03/07 18:53:32;;;;;;;211.57;111.63;;;3.50;99.90;;;;;;6301876;22;20014;-86
2022/03/07 19:07:26;;;;;;;211.00;112.03;;;3.20;99.90;;;;;;6330959;22;20027;-86
2022/03/07 19:09:52;;;;;;;211.05;110.72;;;3.10;99.90;;;;;;6305193;22;20015;-85
2022/03/07 19:12:19;;;;;;;227.90;118.18;;;3.20;99.90;;;;;;6304733;22;20045;-86
2022/03/07 19:14:48;;;;;;;221.07;116.47;;;3.70;99.90;;;;;;6305011;22;20072;-86
2022/03/07 19:17:23;;;;;;;206.80;112.75;;;3.10;99.90;;;;;;6305852;22;20014;-86
2022/03/07 19:19:52;;;;;;;201.98;109.32;;;3.50;99.90;;;;;;6306241;22;20025;-86
2022/03/07 19:22:20;;;;;;;217.95;114.40;;;3.00;99.90;;;;;;6303606;22;20010;-86
2022/03/07 19:24:46;;;;;;;215.50;113.30;;;3.10;99.90;;;;;;6305321;22;20014;-85
2022/03/07 19:27:11;;;;;;;239.23;120.28;;;4.40;99.90;;;;;;6302975;22;20084;-86
2022/03/07 19:29:37;;;;;;;265.75;127.13;;;3.00;99.90;;;;;;6303923;22;20042;-87
2022/03/07 19:32:03;;;;;;;268.20;126.97;;;2.90;99.90;;;;;;6303913;22;20025;-85
2022/03/07 19:34:29;;;;;;;269.38;129.40;;;2.90;99.90;;;;;;6304275;22;20014;-86
2022/03/07 19:36:56;;;;;;;280.05;131.15;;;2.80;99.90;;;;;;6303831;22;20023;-88
2022/03/07 19:39:23;;;;;;;275.92;130.57;;;2.90;99.90;;;;;;6302906;22;20233;-87
2022/03/07 19:41:49;;;;;;;273.23;130.05;;;3.10;99.90;;;;;;6305541;22;20023;-86
2022/03/07 19:44:15;;;;;;;259.25;127.28;;;2.80;99.90;;;;;;6303426;22;20345;-86
2022/03/07 19:46:41;;;;;;;229.82;121.22;;;2.80;99.90;;;;;;6304616;22;20096;-87
2022/03/07 19:49:08;;;;;;;223.40;119.15;;;2.50;99.90;;;;;;6305871;22;20072;-86
2022/03/07 19:51:34;;;;;;;218.95;118.50;;;3.20;99.90;;;;;;6304468;22;20020;-88
2022/03/07 19:54:00;;;;;;;222.80;121.35;;;4.20;99.90;;;;;;6302981;22;20014;-88
2022/03/07 19:56:26;;;;;;;204.70;114.70;;;3.80;99.90;;;;;;6303883;22;20072;-87
2022/03/07 19:58:51;;;;;;;207.05;115.53;;;4.90;99.90;;;;;;6305800;22;20011;-86
2022/03/07 20:01:17;;;;;;;187.38;112.13;;;4.80;99.90;;;;;;6306175;22;20057;-86
2022/03/07 20:03:43;;;;;;;191.55;112.25;;;3.30;99.90;;;;;;6305360;22;20038;-86
2022/03/07 20:06:08;;;;;;;182.88;110.13;;;2.60;99.90;;;;;;6304517;22;20109;-85
2022/03/07 20:08:34;;;;;;;194.25;113.32;;;2.50;99.90;;;;;;6304807;22;20049;-84
2022/03/07 20:11:00;;;;;;;182.07;110.68;;;2.50;99.90;;;;;;6314223;22;20033;-86
2022/03/07 20:13:26;;;;;;;99.15;85.05;;;4.60;99.90;;;;;;6318757;22;20019;-85
2022/03/07 20:15:52;;;;;;;88.07;78.43;;;4.50;99.90;;;;;;6317487;22;20046;-85
2022/03/07 20:18:24;;;;;;;;;;;4.40;99.90;;;;;;6307884;22;20015;-85
2022/03/07 20:20:50;;;;;;;909.20;393.67;;;2.30;99.90;;;;;;6304470;22;20430;-86
2022/03/07 20:23:15;;;;;;;313.92;128.73;;;3.00;99.90;;;;;;6304114;22;20516;-85
2022/03/07 20:25:41;;;;;;;267.27;117.80;;;2.20;99.90;;;;;;6303372;22;20112;-86
2022/03/07 20:28:07;;;;;;;207.60;108.18;;;2.20;99.90;;;;;;6303804;22;20096;-86
2022/03/07 20:30:36;;;;;;;;;;;2.10;99.90;;;;;;6301777;22;20073;-86
2022/03/07 20:33:02;;;;;;;95.40;80.78;;;2.00;99.90;;;;;;6303053;22;19963;-87
2022/03/07 20:35:28;;;;;;;;;;;2.00;99.90;;;;;;6305128;22;20095;-86
2022/03/07 20:37:53;;;;;;;;;;;1.90;99.90;;;;;;6304618;22;20306;-88
2022/03/07 20:40:19;;;;;;;;;;;2.40;99.90;;;;;;6306193;22;20067;-89
2022/03/07 20:42:45;;;;;;;105.47;81.97;;;1.50;99.90;;;;;;6301450;22;20511;-86
2022/03/07 20:45:10;;;;;;;;;;;1.90;99.90;;;;;;6308394;22;20377;-86
2022/03/07 20:47:37;;;;;;;;;;;1.80;99.90;;;;;;6304752;22;20061;-86
2022/03/07 20:50:05;;;;;;;;;;;1.50;99.90;;;;;;6306739;22;20550;-86
2022/03/07 20:52:31;;;;;;;;;;;1.70;99.90;;;;;;6303184;22;20007;-87
2022/03/07 20:55:04;;;;;;;;;;;2.50;99.90;;;;;;6303026;22;20073;-87
2022/03/07 20:57:31;;;;;;;122.03;86.82;;;1.70;99.90;;;;;;6301553;22;21223;-89
2022/03/07 20:59:57;;;;;;;;;;;2.10;99.90;;;;;;6304368;22;20019;-87
2022/03/07 21:02:22;;;;;;;123.43;87.50;;;1.70;99.90;;;;;;6305586;22;20437;-88
2022/03/07 21:04:48;;;;;;;;;;;1.60;99.90;;;;;;6310139;22;20019;-88
2022/03/07 21:07:14;;;;;;;;;;;1.70;99.90;;;;;;6311906;22;19988;-88
2022/03/07 21:09:39;;;;;;;;;;;1.70;99.90;;;;;;6310835;22;20325;-87
2022/03/07 21:12:05;;;;;;;226.65;115.50;;;1.70;99.90;;;;;;6305377;22;21136;-86
2022/03/07 21:14:31;;;;;;;;;;;2.40;99.90;;;;;;6304025;22;20523;-87
2022/03/07 21:16:58;;;;;;;;;;;1.60;99.90;;;;;;6304612;22;20032;-88
2022/03/07 21:19:24;;;;;;;188.00;106.73;;;1.60;99.90;;;;;;6302860;22;20478;-87
2022/03/07 21:21:49;;;;;;;;;;;1.40;99.90;;;;;;6305927;22;20046;-87
2022/03/07 21:24:15;;;;;;;;;;;-0.20;99.90;;;;;;6307890;22;19961;-87
2022/03/07 21:26:40;;;;;;;;;;;1.90;99.90;;;;;;6307711;22;19965;-86
2022/03/07 21:29:06;;;;;;;320.57;136.83;;;3.80;99.90;;;;;;6307182;22;20564;-87
2022/03/07 21:31:32;;;;;;;;;;;1.60;99.90;;;;;;6310438;22;20057;-86
2022/03/07 21:33:58;;;;;;;297.83;130.03;;;1.50;99.90;;;;;;6304271;22;20890;-86
2022/03/07 21:36:24;;;;;;;;;;;2.40;99.90;;;;;;6304664;22;20458;-86
2022/03/07 21:38:50;;;;;;;254.82;120.50;;;2.10;99.90;;;;;;6305988;22;20445;-86
2022/03/07 21:41:15;;;;;;;;;;;2.10;99.90;;;;;;6307654;22;20308;-87
2022/03/07 21:43:45;;;;;;;239.65;117.18;;;1.70;99.90;;;;;;6304824;22;20430;-87
2022/03/07 21:46:10;;;;;;;;;;;2.20;99.90;;;;;;6306029;22;20826;-86
2022/03/07 21:48:37;;;;;;;199.65;110.82;;;0.60;99.90;;;;;;6305525;22;20430;-87
2022/03/07 21:51:04;;;;;;;;;;;1.30;99.90;;;;;;6305928;22;20053;-86
2022/03/07 22:07:18;;;;;;;303.50;141.38;;;1.30;99.90;;;;;;6326161;22;20507;-87
2022/03/07 22:13:09;;;;;;;274.38;124.78;;;1.30;99.90;;;;;;6345659;22;20465;-85
2022/03/07 22:46:40;;;;;;;175.55;102.93;;;1.20;99.90;;;;;;6320638;22;20773;-87
2022/03/07 23:13:51;;;;;;;;;;;1.00;99.90;;;;;;6327047;22;19984;-85
2022/03/07 23:22:47;;;;;;;;;;;-0.70;99.90;;;;;;6324234;22;19986;-84
